Time,TemperatureF,DewpointF,PressureIn,WindDirection,WindDirectionDegrees,WindSpeedMPH,WindSpeedGustMPH,Humidity,HourlyPrecipIn,Conditions,Clouds,dailyrainin,SoftwareType,DateUTC
2013-10-13 00:23:00,59.0,47.0,30.11,NW,324,6.0,12.0,65,0.00,,,0.00,,2013-10-13 05:23:00,
2013-10-13 00:43:00,58.0,47.0,30.11,WNW,303,4.0,8.0,66,0.00,,,0.00,,2013-10-13 05:43:00,
2013-10-13 00:52:00,57.0,46.0,30.12,NW,323,2.0,8.0,66,0.00,,,0.00,,2013-10-13 05:52:00,
2013-10-13 01:12:00,57.0,46.0,30.12,NNW,330,2.0,7.0,66,0.00,,,0.00,,2013-10-13 06:12:00,
2013-10-13 01:22:00,55.0,45.0,30.14,NW,309,2.0,7.0,68,0.00,,,0.00,,2013-10-13 06:22:00,
2013-10-13 01:42:00,55.0,45.0,30.14,NW,312,2.0,7.0,68,0.00,,,0.00,,2013-10-13 06:42:00,
2013-10-13 01:52:00,54.0,44.0,30.14,NW,304,1.0,6.0,70,0.00,,,0.00,,2013-10-13 06:52:00,
2013-10-13 02:11:00,53.0,44.0,30.14,West,277,0.0,3.0,71,0.00,,,0.00,,2013-10-13 07:11:00,
2013-10-13 02:22:00,53.0,44.0,30.16,NNW,327,1.0,3.0,72,0.00,,,0.00,,2013-10-13 07:22:00,
2013-10-13 02:52:00,51.0,43.0,30.16,NW,318,0.0,3.0,74,0.00,,,0.00,,2013-10-13 07:52:00,
2013-10-13 03:22:00,51.0,43.0,30.16,West,281,0.0,3.0,75,0.00,,,0.00,,2013-10-13 08:22:00,
2013-10-13 03:42:00,50.0,42.0,30.16,WNW,296,0.0,2.0,75,0.00,,,0.00,,2013-10-13 08:42:00,
2013-10-13 03:52:00,49.0,42.0,30.17,NW,325,1.0,3.0,77,0.00,,,0.00,,2013-10-13 08:52:00,
2013-10-13 04:11:00,49.0,42.0,30.17,NW,307,1.0,5.0,77,0.00,,,0.00,,2013-10-13 09:11:00,
2013-10-13 04:22:00,49.0,42.0,30.19,NW,304,0.0,3.0,77,0.00,,,0.00,,2013-10-13 09:22:00,
2013-10-13 04:43:00,49.0,42.0,30.19,NW,322,1.0,6.0,77,0.00,,,0.00,,2013-10-13 09:43:00,
2013-10-13 04:53:00,49.0,42.0,30.21,WNW,293,1.0,5.0,77,0.00,,,0.00,,2013-10-13 09:53:00,
2013-10-13 05:13:00,48.0,41.0,30.21,WNW,294,1.0,5.0,77,0.00,,,0.00,,2013-10-13 10:13:00,
2013-10-13 05:23:00,48.0,41.0,30.21,NNW,333,0.0,6.0,76,0.00,,,0.00,,2013-10-13 10:23:00,
2013-10-13 05:53:00,48.0,41.0,30.22,West,260,0.0,3.0,76,0.00,,,0.00,,2013-10-13 10:53:00,
2013-10-13 06:12:00,48.0,41.0,30.22,NW,313,0.0,5.0,76,0.00,,,0.00,,2013-10-13 11:12:00,
2013-10-13 06:22:00,48.0,41.0,30.23,NW,316,0.0,2.0,76,0.00,,,0.00,,2013-10-13 11:22:00,
2013-10-13 06:52:00,47.0,41.0,30.24,NNE,21,0.0,3.0,78,0.00,,,0.00,,2013-10-13 11:52:00,
2013-10-13 07:12:00,47.0,41.0,30.24,WNW,291,0.0,5.0,79,0.00,,,0.00,,2013-10-13 12:12:00,
2013-10-13 07:21:00,46.0,40.0,30.25,West,275,0.0,3.0,80,0.00,,,0.00,,2013-10-13 12:21:00,
2013-10-13 07:52:00,46.0,41.0,30.27,WNW,291,0.0,1.0,81,0.00,,,0.00,,2013-10-13 12:52:00,
2013-10-13 08:12:00,46.0,41.0,30.27,WNW,291,0.0,0.0,81,0.00,,,0.00,,2013-10-13 13:12:00,
2013-10-13 08:22:00,46.0,40.0,30.28,WNW,296,0.0,2.0,80,0.00,,,0.00,,2013-10-13 13:22:00,
2013-10-13 08:52:00,49.0,42.0,30.29,NW,310,0.0,3.0,77,0.00,,,0.00,,2013-10-13 13:52:00,
2013-10-13 09:11:00,50.0,43.0,30.29,North,0,0.0,3.0,76,0.00,,,0.00,,2013-10-13 14:11:00,
2013-10-13 09:21:00,52.0,44.0,30.29,North,0,1.0,2.0,73,0.00,,,0.00,,2013-10-13 14:21:00,
2013-10-13 09:42:00,53.0,44.0,30.29,NNW,336,0.0,3.0,71,0.00,,,0.00,,2013-10-13 14:42:00,
2013-10-13 09:52:00,55.0,45.0,30.30,NNW,332,3.0,6.0,69,0.00,,,0.00,,2013-10-13 14:52:00,
2013-10-13 10:12:00,56.0,45.0,30.30,NNW,331,3.0,6.0,67,0.00,,,0.00,,2013-10-13 15:12:00,
2013-10-13 10:22:00,58.0,46.0,30.30,NW,314,2.0,12.0,65,0.00,,,0.00,,2013-10-13 15:22:00,
2013-10-13 10:43:00,59.0,46.0,30.30,NNE,20,4.0,7.0,61,0.00,,,0.00,,2013-10-13 15:43:00,
2013-10-13 10:54:00,60.0,45.0,30.31,NW,317,2.0,8.0,57,0.00,,,0.00,,2013-10-13 15:54:00,
2013-10-13 11:12:00,61.0,45.0,30.31,NNW,347,3.0,8.0,55,0.00,,,0.00,,2013-10-13 16:12:00,
2013-10-13 11:24:00,62.0,43.0,30.31,NW,308,3.0,9.0,50,0.00,,,0.00,,2013-10-13 16:24:00,
2013-10-13 11:42:00,63.0,42.0,30.31,NNE,12,1.0,8.0,47,0.00,,,0.00,,2013-10-13 16:42:00,
2013-10-13 11:54:00,64.0,40.0,30.31,North,10,3.0,8.0,41,0.00,,,0.00,,2013-10-13 16:54:00,
2013-10-13 12:22:00,66.0,38.0,30.30,NNE,28,4.0,10.0,36,0.00,,,0.00,,2013-10-13 17:22:00,
2013-10-13 12:52:00,67.0,36.0,30.29,NW,321,5.0,8.0,32,0.00,,,0.00,,2013-10-13 17:52:00,
2013-10-13 13:22:00,68.0,35.0,30.28,NW,321,5.0,12.0,29,0.00,,,0.00,,2013-10-13 18:22:00,
2013-10-13 13:42:00,68.0,35.0,30.28,WNW,302,4.0,6.0,29,0.00,,,0.00,,2013-10-13 18:42:00,
2013-10-13 13:52:00,69.0,34.0,30.27,WNW,300,4.0,7.0,27,0.00,,,0.00,,2013-10-13 18:52:00,
2013-10-13 14:11:00,69.0,34.0,30.27,WNW,295,6.0,8.0,27,0.00,,,0.00,,2013-10-13 19:11:00,
2013-10-13 14:22:00,69.0,34.0,30.26,NNE,14,6.0,9.0,27,0.00,,,0.00,,2013-10-13 19:22:00,
2013-10-13 14:42:00,69.0,34.0,30.26,West,279,2.0,7.0,27,0.00,,,0.00,,2013-10-13 19:42:00,
2013-10-13 14:53:00,70.0,34.0,30.26,NNW,328,5.0,7.0,26,0.00,,,0.00,,2013-10-13 19:53:00,
2013-10-13 15:22:00,69.0,33.0,30.25,NNW,341,3.0,8.0,26,0.00,,,0.00,,2013-10-13 20:22:00,
2013-10-13 15:43:00,69.0,33.0,30.25,WNW,302,3.0,12.0,26,0.00,,,0.00,,2013-10-13 20:43:00,
2013-10-13 15:52:00,69.0,33.0,30.25,NW,326,7.0,12.0,26,0.00,,,0.00,,2013-10-13 20:52:00,
2013-10-13 16:11:00,68.0,33.0,30.25,NNE,21,1.0,13.0,27,0.00,,,0.00,,2013-10-13 21:11:00,
2013-10-13 16:21:00,68.0,32.0,30.26,NW,309,6.0,10.0,26,0.00,,,0.00,,2013-10-13 21:21:00,
2013-10-13 16:44:00,68.0,32.0,30.26,NW,312,4.0,10.0,26,0.00,,,0.00,,2013-10-13 21:44:00,
2013-10-13 16:55:00,68.0,33.0,30.25,NNW,340,6.0,13.0,27,0.00,,,0.00,,2013-10-13 21:55:00,
2013-10-13 17:24:00,67.0,31.0,30.25,NNW,339,5.0,7.0,26,0.00,,,0.00,,2013-10-13 22:24:00,
2013-10-13 17:43:00,66.0,30.0,30.25,NNW,339,4.0,8.0,26,0.00,,,0.00,,2013-10-13 22:43:00,
2013-10-13 17:53:00,66.0,31.0,30.26,NW,324,1.0,10.0,27,0.00,,,0.00,,2013-10-13 22:53:00,
2013-10-13 18:12:00,65.0,31.0,30.26,NE,39,0.0,3.0,28,0.00,,,0.00,,2013-10-13 23:12:00,
2013-10-13 18:22:00,64.0,31.0,30.26,NW,317,0.0,6.0,29,0.00,,,0.00,,2013-10-13 23:22:00,
2013-10-13 18:42:00,63.0,31.0,30.26,WNW,299,0.0,5.0,30,0.00,,,0.00,,2013-10-13 23:42:00,
2013-10-13 18:52:00,61.0,32.0,30.26,WNW,302,1.0,2.0,33,0.00,,,0.00,,2013-10-13 23:52:00,
2013-10-13 19:12:00,60.0,32.0,30.26,WNW,302,0.0,1.0,34,0.00,,,0.00,,2013-10-14 00:12:00,
2013-10-13 19:21:00,58.0,34.0,30.28,WNW,302,0.0,1.0,41,0.00,,,0.00,,2013-10-14 00:21:00,
2013-10-13 19:42:00,57.0,35.0,30.28,WNW,302,0.0,0.0,44,0.00,,,0.00,,2013-10-14 00:42:00,
2013-10-13 19:52:00,56.0,33.0,30.29,NNW,327,0.0,2.0,42,0.00,,,0.00,,2013-10-14 00:52:00,
2013-10-13 20:11:00,56.0,33.0,30.29,NNW,344,0.0,5.0,42,0.00,,,0.00,,2013-10-14 01:11:00,
2013-10-13 20:21:00,56.0,34.0,30.29,NNW,329,0.0,3.0,43,0.00,,,0.00,,2013-10-14 01:21:00,
2013-10-13 20:42:00,56.0,34.0,30.29,North,6,1.0,3.0,43,0.00,,,0.00,,2013-10-14 01:42:00,
2013-10-13 20:52:00,56.0,37.0,30.29,NNE,15,5.0,8.0,48,0.00,,,0.00,,2013-10-14 01:52:00,
2013-10-13 21:11:00,56.0,38.0,30.29,NNE,12,5.0,9.0,50,0.00,,,0.00,,2013-10-14 02:11:00,
2013-10-13 21:22:00,55.0,38.0,30.30,NNE,22,3.0,10.0,53,0.00,,,0.00,,2013-10-14 02:22:00,
2013-10-13 21:52:00,54.0,40.0,30.31,North,355,2.0,7.0,58,0.00,,,0.00,,2013-10-14 02:52:00,
2013-10-13 22:12:00,53.0,39.0,30.31,NNE,22,1.0,7.0,59,0.00,,,0.00,,2013-10-14 03:12:00,
2013-10-13 22:22:00,52.0,39.0,30.32,NNE,14,0.0,6.0,61,0.00,,,0.00,,2013-10-14 03:22:00,
2013-10-13 22:44:00,52.0,39.0,30.32,NW,320,0.0,2.0,62,0.00,,,0.00,,2013-10-14 03:44:00,
2013-10-13 22:55:00,50.0,39.0,30.33,NW,324,0.0,1.0,65,0.00,,,0.00,,2013-10-14 03:55:00,
2013-10-13 23:14:00,50.0,39.0,30.33,NW,324,0.0,1.0,66,0.00,,,0.00,,2013-10-14 04:14:00,
2013-10-13 23:24:00,49.0,39.0,30.33,NW,325,0.0,1.0,69,0.00,,,0.00,,2013-10-14 04:24:00,
2013-10-13 23:43:00,49.0,40.0,30.33,NW,325,0.0,0.0,70,0.00,,,0.00,,2013-10-14 04:43:00,
2013-10-13 23:54:00,48.0,39.0,30.32,NW,325,0.0,0.0,72,0.00,,,0.00,,2013-10-14 04:54:00,